Leesburg, FL

6:18 AM EDT on April 24, 2017 (GMT -0400)
Cypress Creek | | Change Station

Elev 82 ft 28.77 °N, 81.88 °W | Updated 13 seconds ago

Overcast
Overcast
73.8 °F
Feels Like 73 °F
N
0.0
Wind Variable Wind from West
Gusts 0.0 mph

Today
High -- | Low -- °F
--% Chance of Precip.
Yesterday
High -- | Low -- °F
Precip. -- in
Pressure 29.73 in
Visibility 10.0 miles
Clouds Scattered Clouds 2100 ft
Overcast 4900 ft
Heat Index 73 °F
Dew Point 69 °F
Humidity 86%
Rainfall 0.00 in
Snow Depth Not available.
6:52 AM 7:59 PM
Waning Crescent, 6% visible
METAR KLEE 240953Z AUTO 24005KT 10SM SCT021 OVC049 22/21 A2974 RMK AO2 SLP068 T02220206
Pressure 29.73 in
Visibility 10.0 miles
Clouds Scattered Clouds 2100 ft
Overcast 4900 ft
Heat Index 73 °F
Dew Point 69 °F
Humidity 86%
Rainfall 0.00 in
Snow Depth Not available.
6:52 AM 7:59 PM
Waning Crescent, 6% visible
METAR KLEE 240953Z AUTO 24005KT 10SM SCT021 OVC049 22/21 A2974 RMK AO2 SLP068 T02220206

Get Severe Weather Alerts

Thanks for signing up!

Be on the lookout for a verification email in your inbox.

You'll start receiving the daily forecast at 8 AM.

×

10-Day Weather Forecast

Almanac

Astronomy

Apr. 24, 2017 Rise Set
Actual Time
Civil Twilight
Nautical Twilight
Astronomical Twilight
Moon
Length of Visible Light
Length of Day
Tomorrow will be .
, % of the Moon is Illuminated

Today's Extremes

State Highs State Lows

Community

WunderPhotos

WunderBlog® & News

Nearby

Air Quality

  Air Quality AQ Index Pollutant
Not available.

Snow Depth

Station Depth Elevation

Earthquake Activity

City Distance Mag. Time & Date
Minimum magnitude displayed is 2.5.

Coastal Water Temperatures

Place Temperature

Stations

Nearby Weather Stations

Station Location Temp. Windchill Dew Point Humidity Wind Precip. Elev Updated Type
                   

Watches & Warnings

There are currently no watches in effect.